Time;durP1;ratioP1;P1;durP2;ratioP2;P2;SDS_P1;SDS_P2;PMS_P1;PMS_P2;Temp;Humidity;BMP_temperature;BMP_pressure;BME280_temperature;BME280_humidity;BME280_pressure;Samples;Min_cycle;Max_cycle;Signal;HPM_P1;HPM_P2
2023/12/25 00:01:43;;;;;;;15.20;1.50;;;11.30;99.90;;;;;;4248453;27;20058;-80
2023/12/25 00:03:45;;;;;;;13.38;1.88;;;11.40;99.90;;;;;;4248765;27;20090;-80
2023/12/25 00:05:46;;;;;;;14.70;1.42;;;11.70;99.90;;;;;;4249417;27;20114;-80
2023/12/25 00:07:46;;;;;;;13.52;2.03;;;11.40;99.90;;;;;;4248792;27;20047;-80
2023/12/25 00:09:47;;;;;;;13.90;2.28;;;11.50;99.90;;;;;;4249472;27;20491;-80
2023/12/25 00:11:48;;;;;;;7.78;1.52;;;11.80;99.90;;;;;;4249440;27;20031;-80
2023/12/25 00:13:52;;;;;;;9.40;1.35;;;11.90;99.90;;;;;;4239102;27;20083;-80
2023/12/25 00:15:52;;;;;;;14.10;1.52;;;11.40;99.90;;;;;;4231992;28;20054;-80
2023/12/25 00:17:53;;;;;;;8.02;1.45;;;11.50;99.90;;;;;;4231877;28;20036;-80
2023/12/25 00:19:54;;;;;;;12.05;2.00;;;11.50;99.90;;;;;;4232169;28;20039;-80
2023/12/25 00:21:54;;;;;;;13.25;1.30;;;11.40;99.90;;;;;;4243470;27;20035;-80
2023/12/25 00:23:56;;;;;;;18.67;1.77;;;11.50;99.90;;;;;;4249157;27;20489;-80
2023/12/25 00:25:57;;;;;;;13.35;1.35;;;11.80;99.90;;;;;;4248877;27;20039;-80
2023/12/25 00:27:57;;;;;;;11.63;1.52;;;11.50;99.90;;;;;;4230709;28;20054;-80
2023/12/25 00:29:58;;;;;;;11.50;1.52;;;11.20;99.90;;;;;;4248986;27;20031;-80
2023/12/25 00:31:59;;;;;;;9.75;1.88;;;11.20;99.90;;;;;;4248672;27;20141;-80
2023/12/25 00:33:59;;;;;;;7.47;1.30;;;11.20;99.90;;;;;;4249175;27;20047;-79
2023/12/25 00:36:00;;;;;;;10.82;2.08;;;11.30;99.90;;;;;;4249351;27;20043;-80
2023/12/25 00:38:01;;;;;;;16.30;1.75;;;11.20;99.90;;;;;;4259521;27;20077;-78
2023/12/25 00:40:02;;;;;;;18.45;2.50;;;11.20;99.90;;;;;;4260590;27;20043;-80
2023/12/25 00:42:03;;;;;;;13.50;2.42;;;11.20;99.90;;;;;;4249865;27;20053;-80
2023/12/25 00:44:04;;;;;;;8.45;1.20;;;11.30;99.90;;;;;;4234601;28;20059;-81
2023/12/25 00:46:05;;;;;;;12.60;2.08;;;11.30;99.90;;;;;;4252178;27;20562;-80
2023/12/25 00:48:07;;;;;;;13.18;1.88;;;11.20;99.90;;;;;;4250935;27;20082;-80
2023/12/25 00:50:08;;;;;;;10.18;1.92;;;11.30;99.90;;;;;;4252870;27;20519;-79
2023/12/25 00:52:09;;;;;;;11.55;1.40;;;11.20;99.90;;;;;;4233354;28;20071;-80
2023/12/25 00:54:10;;;;;;;14.85;1.95;;;11.20;99.90;;;;;;4232614;28;20073;-80
2023/12/25 00:56:10;;;;;;;6.97;1.20;;;11.20;99.90;;;;;;4225968;28;20129;-80
2023/12/25 00:58:11;;;;;;;9.60;1.77;;;11.20;99.90;;;;;;4241081;27;20050;-79
2023/12/25 01:00:12;;;;;;;7.40;1.05;;;11.20;99.90;;;;;;4249702;27;20084;-79
2023/12/25 01:02:14;;;;;;;14.55;1.88;;;11.30;99.90;;;;;;4231614;28;20042;-79
2023/12/25 01:04:15;;;;;;;10.70;1.58;;;11.30;99.90;;;;;;4231584;28;20043;-79
2023/12/25 01:06:16;;;;;;;7.22;1.17;;;11.30;99.90;;;;;;4231339;28;20059;-79
2023/12/25 01:08:18;;;;;;;9.82;1.83;;;11.30;99.90;;;;;;4231383;28;20043;-79
2023/12/25 01:10:19;;;;;;;8.00;1.27;;;11.30;99.90;;;;;;4231604;28;20130;-79
2023/12/25 01:12:20;;;;;;;11.55;2.10;;;11.30;99.90;;;;;;4230326;28;20043;-79
2023/12/25 01:14:20;;;;;;;7.80;1.70;;;11.70;99.90;;;;;;4231162;28;20526;-79
2023/12/25 01:16:23;;;;;;;12.07;1.75;;;11.30;99.90;;;;;;4230519;28;20043;-79
2023/12/25 01:18:24;;;;;;;7.95;1.38;;;11.40;99.90;;;;;;4218104;28;20040;-79
2023/12/25 01:20:25;;;;;;;7.30;1.20;;;11.30;99.90;;;;;;4230776;28;20054;-79
2023/12/25 01:22:26;;;;;;;5.90;1.30;;;11.20;99.90;;;;;;4244812;28;20031;-79
2023/12/25 01:24:26;;;;;;;10.13;1.38;;;11.10;99.90;;;;;;4242707;28;20048;-78
2023/12/25 01:26:30;;;;;;;12.93;1.02;;;11.10;99.90;;;;;;4233037;28;20135;-79
2023/12/25 01:28:32;;;;;;;8.27;0.93;;;11.10;99.90;;;;;;4232384;28;20052;-79
2023/12/25 01:30:32;;;;;;;9.18;1.55;;;11.20;99.90;;;;;;4234877;28;20483;-80
2023/12/25 01:32:33;;;;;;;8.88;1.80;;;11.10;99.90;;;;;;4242485;28;20055;-79
2023/12/25 01:34:34;;;;;;;5.72;1.15;;;11.10;99.90;;;;;;4237664;28;20471;-80
2023/12/25 01:36:35;;;;;;;11.23;1.38;;;11.10;99.90;;;;;;4237810;28;20043;-79
2023/12/25 01:38:36;;;;;;;7.22;1.10;;;;;;;;;;4237582;28;20494;-79
2023/12/25 01:40:39;;;;;;;6.70;1.10;;;11.00;99.90;;;;;;4235679;28;20471;-79
2023/12/25 01:42:43;;;;;;;11.73;1.02;;;11.10;99.90;;;;;;4236442;28;20082;-79
2023/12/25 01:44:46;;;;;;;8.05;1.38;;;11.10;99.90;;;;;;4234343;28;20043;-79
2023/12/25 01:46:47;;;;;;;15.75;1.23;;;11.10;99.90;;;;;;4228765;28;20042;-79
2023/12/25 01:48:50;;;;;;;7.88;0.98;;;11.10;99.90;;;;;;4216086;28;20036;-79
2023/12/25 01:50:53;;;;;;;12.32;1.83;;;11.30;99.90;;;;;;4218596;28;20048;-79
2023/12/25 01:52:54;;;;;;;3.38;1.08;;;11.30;99.90;;;;;;4223295;28;20097;-79
2023/12/25 01:54:57;;;;;;;14.77;1.60;;;11.20;99.90;;;;;;4231956;28;20055;-79
2023/12/25 01:56:58;;;;;;;7.35;1.95;;;11.20;99.90;;;;;;4232666;28;20540;-79
2023/12/25 01:58:59;;;;;;;10.05;1.20;;;11.20;99.90;;;;;;4232342;28;20075;-79
2023/12/25 02:01:00;;;;;;;7.43;1.08;;;11.10;99.90;;;;;;4238887;28;20116;-79
2023/12/25 02:03:00;;;;;;;6.80;1.63;;;11.20;99.90;;;;;;4249050;28;20051;-79
2023/12/25 02:05:01;;;;;;;11.82;2.30;;;11.10;99.90;;;;;;4250100;28;20118;-79
2023/12/25 02:07:03;;;;;;;9.98;1.92;;;10.80;99.90;;;;;;4249091;28;20047;-79
2023/12/25 02:09:03;;;;;;;9.18;1.05;;;11.10;99.90;;;;;;4249021;28;20143;-79
2023/12/25 02:11:05;;;;;;;7.63;2.25;;;11.00;99.90;;;;;;4249072;28;20464;-79
2023/12/25 02:13:06;;;;;;;10.65;1.30;;;10.80;99.90;;;;;;4249117;28;20039;-79
2023/12/25 02:15:07;;;;;;;6.85;1.95;;;11.10;99.90;;;;;;4248925;28;20050;-79
2023/12/25 02:17:10;;;;;;;8.02;1.77;;;10.80;99.90;;;;;;4249236;28;20035;-80
2023/12/25 02:19:32;;;;;;;9.85;1.30;;;11.00;99.90;;;;;;4231168;28;20408;-79
2023/12/25 02:21:33;;;;;;;15.57;1.70;;;10.70;99.90;;;;;;4230682;28;20093;-79
2023/12/25 02:23:37;;;;;;;11.77;1.52;;;11.00;99.90;;;;;;4231031;28;20487;-79
2023/12/25 02:25:56;;;;;;;8.00;1.52;;;11.00;99.90;;;;;;4249291;28;20035;-80
2023/12/25 02:27:57;;;;;;;;;;;10.70;99.90;;;;;;4251806;27;20478;-79
2023/12/25 02:29:58;;;;;;;7.68;1.35;;;10.70;99.90;;;;;;4233643;28;20089;-79
2023/12/25 02:31:59;;;;;;;8.48;1.25;;;10.60;99.90;;;;;;4252375;27;20037;-79
2023/12/25 02:33:59;;;;;;;7.22;1.23;;;10.60;99.90;;;;;;4252440;27;20047;-79
2023/12/25 02:36:00;;;;;;;5.10;0.80;;;11.00;99.90;;;;;;4252100;27;20039;-79
2023/12/25 02:38:01;;;;;;;11.55;1.83;;;11.10;99.90;;;;;;4251899;27;20043;-79
2023/12/25 02:40:02;;;;;;;9.50;1.88;;;10.80;99.90;;;;;;4251307;27;20110;-80
2023/12/25 02:42:03;;;;;;;7.45;1.30;;;10.70;99.90;;;;;;4250857;27;20039;-80
2023/12/25 02:44:04;;;;;;;18.63;1.83;;;10.70;99.90;;;;;;4249786;27;20155;-80
2023/12/25 02:46:04;;;;;;;6.82;1.55;;;10.70;99.90;;;;;;4250904;27;20070;-79
2023/12/25 02:48:06;;;;;;;13.18;1.35;;;10.70;99.90;;;;;;4250498;27;20048;-79
2023/12/25 02:50:07;;;;;;;8.27;1.35;;;10.60;99.90;;;;;;4250637;27;20083;-79
2023/12/25 02:52:08;;;;;;;9.88;1.35;;;10.70;99.90;;;;;;4250979;27;20448;-79
2023/12/25 02:54:09;;;;;;;13.05;1.48;;;10.60;99.90;;;;;;4237029;27;20051;-79
2023/12/25 02:56:10;;;;;;;9.65;1.45;;;10.60;99.90;;;;;;4233666;28;20159;-79
2023/12/25 02:58:11;;;;;;;6.97;1.27;;;10.60;99.90;;;;;;4245758;27;20055;-79
2023/12/25 03:00:12;;;;;;;8.40;0.88;;;10.60;99.90;;;;;;4244974;27;20394;-79
2023/12/25 03:02:13;;;;;;;6.68;1.65;;;10.60;99.90;;;;;;4251923;27;20055;-79
2023/12/25 03:04:14;;;;;;;8.27;1.42;;;10.80;99.90;;;;;;4252138;27;20035;-79
2023/12/25 03:06:15;;;;;;;8.38;1.40;;;10.60;99.90;;;;;;4233565;28;20081;-79
2023/12/25 03:08:15;;;;;;;7.65;1.40;;;10.70;99.90;;;;;;4251787;27;20043;-79
2023/12/25 03:10:17;;;;;;;13.10;1.90;;;10.50;99.90;;;;;;4251690;27;20047;-80
2023/12/25 03:12:18;;;;;;;11.13;1.48;;;10.60;99.90;;;;;;4251312;27;20090;-80
2023/12/25 03:14:19;;;;;;;14.68;1.92;;;10.60;99.90;;;;;;4250637;27;20051;-80
2023/12/25 03:16:19;;;;;;;12.95;1.17;;;10.50;99.90;;;;;;4250271;27;20050;-80
2023/12/25 03:18:20;;;;;;;16.83;1.60;;;10.60;99.90;;;;;;4250326;27;20047;-80
2023/12/25 03:20:22;;;;;;;7.10;1.80;;;10.50;99.90;;;;;;4249963;27;20046;-80
2023/12/25 03:22:23;;;;;;;10.85;1.60;;;10.50;99.90;;;;;;4250054;27;20092;-80
2023/12/25 03:24:24;;;;;;;9.82;1.40;;;10.70;99.90;;;;;;4250918;27;20435;-80
2023/12/25 03:26:24;;;;;;;11.18;2.15;;;10.50;99.90;;;;;;4249757;27;20050;-80
2023/12/25 03:28:27;;;;;;;10.77;2.25;;;10.50;99.90;;;;;;4250054;27;20048;-80
2023/12/25 03:30:27;;;;;;;9.95;1.55;;;10.50;99.90;;;;;;4238651;27;20039;-80
2023/12/25 03:32:28;;;;;;;4.75;0.82;;;10.60;99.90;;;;;;4234059;28;20095;-78
2023/12/25 03:34:29;;;;;;;17.48;1.65;;;10.60;99.90;;;;;;4234196;28;20039;-78
2023/12/25 03:36:29;;;;;;;14.88;1.83;;;10.90;99.90;;;;;;4232944;28;20132;-78
2023/12/25 03:38:30;;;;;;;22.75;2.30;;;10.60;99.90;;;;;;4232139;28;20044;-78
2023/12/25 03:40:33;;;;;;;12.38;1.30;;;10.50;99.90;;;;;;4232746;28;20052;-78
2023/12/25 03:42:33;;;;;;;10.57;2.10;;;10.80;99.90;;;;;;4246603;27;20491;-78
2023/12/25 03:44:34;;;;;;;10.70;1.58;;;10.50;99.90;;;;;;4250052;27;20165;-78
2023/12/25 03:46:36;;;;;;;11.85;2.15;;;10.50;99.90;;;;;;4249488;27;20047;-80
2023/12/25 03:48:36;;;;;;;9.63;1.63;;;10.50;99.90;;;;;;4250078;27;20399;-80
2023/12/25 03:50:37;;;;;;;7.20;1.40;;;10.40;99.90;;;;;;4247486;27;20035;-79
2023/12/25 03:52:38;;;;;;;7.80;2.10;;;10.60;99.90;;;;;;4247340;27;20095;-80
2023/12/25 03:54:38;;;;;;;13.10;2.10;;;10.40;99.90;;;;;;4241127;27;20071;-80
2023/12/25 03:56:39;;;;;;;9.82;2.78;;;10.40;99.90;;;;;;4232601;28;20485;-80
2023/12/25 03:58:40;;;;;;;7.32;1.25;;;10.40;99.90;;;;;;4232254;28;20047;-80
2023/12/25 04:00:40;;;;;;;10.85;1.85;;;10.40;99.90;;;;;;4232421;28;20100;-80
2023/12/25 04:02:41;;;;;;;8.18;1.45;;;10.40;99.90;;;;;;4242446;27;20066;-80
2023/12/25 04:04:42;;;;;;;16.13;1.85;;;10.40;99.90;;;;;;4249781;27;20574;-80
2023/12/25 04:06:43;;;;;;;8.32;0.80;;;10.40;99.90;;;;;;4249560;27;20047;-80
2023/12/25 04:08:44;;;;;;;7.07;0.93;;;10.30;99.90;;;;;;4249146;27;20050;-80
2023/12/25 04:10:45;;;;;;;10.02;1.25;;;10.40;99.90;;;;;;4248903;27;20078;-80
2023/12/25 04:12:46;;;;;;;11.20;1.83;;;10.30;99.90;;;;;;4232268;28;20044;-80
2023/12/25 04:14:46;;;;;;;14.18;1.95;;;10.30;99.90;;;;;;4232372;28;20119;-81
2023/12/25 04:16:47;;;;;;;13.43;2.15;;;10.40;99.90;;;;;;4232045;28;20050;-80
2023/12/25 04:18:48;;;;;;;8.07;1.33;;;10.40;99.90;;;;;;4232384;28;20118;-80
2023/12/25 04:20:49;;;;;;;9.50;1.92;;;10.40;99.90;;;;;;4236602;27;20048;-78
2023/12/25 04:22:49;;;;;;;8.13;1.17;;;10.30;99.90;;;;;;4247533;27;20049;-78
2023/12/25 04:24:50;;;;;;;9.05;1.40;;;10.40;99.90;;;;;;4249269;27;20043;-78
2023/12/25 04:26:51;;;;;;;6.10;1.98;;;10.40;99.90;;;;;;4249217;27;20039;-78
2023/12/25 04:28:52;;;;;;;10.63;1.85;;;10.40;99.90;;;;;;4248711;27;20127;-78
2023/12/25 04:30:53;;;;;;;10.38;1.30;;;10.40;99.90;;;;;;4249349;27;20054;-78
2023/12/25 04:32:54;;;;;;;6.43;1.40;;;10.40;99.90;;;;;;4248966;27;20057;-78
2023/12/25 04:34:54;;;;;;;14.15;2.00;;;10.40;99.90;;;;;;4249102;27;20043;-78
2023/12/25 04:36:55;;;;;;;12.50;1.75;;;10.40;99.90;;;;;;4248980;27;20047;-78
2023/12/25 04:38:58;;;;;;;12.18;1.80;;;9.80;99.90;;;;;;4239611;27;20046;-78
2023/12/25 04:40:59;;;;;;;13.85;1.70;;;10.30;99.90;;;;;;4246780;27;20043;-78
2023/12/25 04:43:00;;;;;;;6.63;1.02;;;10.30;99.90;;;;;;4249966;27;20046;-78
2023/12/25 04:45:00;;;;;;;15.52;2.28;;;10.30;99.90;;;;;;4218669;28;20499;-78
2023/12/25 04:47:01;;;;;;;9.93;2.10;;;10.30;99.90;;;;;;4233242;28;20051;-78
2023/12/25 04:49:02;;;;;;;18.58;2.33;;;10.40;99.90;;;;;;4233389;28;20514;-79
2023/12/25 04:51:03;;;;;;;9.18;2.10;;;10.30;99.90;;;;;;4232836;28;20047;-79
2023/12/25 04:53:03;;;;;;;18.88;2.22;;;10.40;99.90;;;;;;4232860;28;20062;-79
2023/12/25 04:55:04;;;;;;;9.45;1.65;;;10.40;99.90;;;;;;4234777;27;20123;-79
2023/12/25 04:57:05;;;;;;;13.15;1.95;;;10.40;99.90;;;;;;4250082;27;20039;-79
2023/12/25 04:59:05;;;;;;;13.65;3.22;;;10.30;99.90;;;;;;4250140;27;20079;-79
2023/12/25 05:01:06;;;;;;;11.88;2.25;;;10.30;99.90;;;;;;4249813;27;20090;-79
2023/12/25 05:03:07;;;;;;;5.28;1.08;;;10.40;99.90;;;;;;4249819;27;20054;-79
2023/12/25 05:05:08;;;;;;;6.05;1.05;;;10.40;99.90;;;;;;4249964;27;20046;-79
2023/12/25 05:07:08;;;;;;;6.47;1.38;;;10.40;99.90;;;;;;4250201;27;20042;-79
2023/12/25 05:09:09;;;;;;;8.93;2.30;;;10.30;99.90;;;;;;4250165;27;20066;-79
2023/12/25 05:11:11;;;;;;;9.70;1.42;;;10.30;99.90;;;;;;4249935;27;20126;-79
2023/12/25 05:13:11;;;;;;;12.07;2.28;;;10.40;99.90;;;;;;4249749;27;20437;-79
2023/12/25 05:15:12;;;;;;;8.73;1.33;;;10.30;99.90;;;;;;4231264;28;20047;-79
2023/12/25 05:17:12;;;;;;;17.10;2.22;;;10.30;99.90;;;;;;4250000;27;20045;-79
2023/12/25 05:19:13;;;;;;;7.05;1.00;;;10.30;99.90;;;;;;4250006;27;20077;-79
2023/12/25 05:21:14;;;;;;;15.02;1.50;;;10.30;99.90;;;;;;4249857;27;20042;-79
2023/12/25 05:23:15;;;;;;;10.90;1.80;;;10.20;99.90;;;;;;4249737;27;20043;-79
2023/12/25 05:25:15;;;;;;;6.03;0.90;;;10.20;99.90;;;;;;4250114;27;20081;-79
2023/12/25 05:27:16;;;;;;;10.43;1.80;;;10.20;99.90;;;;;;4249263;27;20075;-79
2023/12/25 05:29:17;;;;;;;5.22;1.10;;;10.20;99.90;;;;;;4249705;27;20042;-79
2023/12/25 05:31:17;;;;;;;14.15;1.27;;;10.20;99.90;;;;;;4214684;28;20130;-79
2023/12/25 05:33:19;;;;;;;14.65;1.48;;;10.20;99.90;;;;;;4249584;27;20046;-79
2023/12/25 05:35:20;;;;;;;10.75;1.85;;;10.10;99.90;;;;;;4249862;27;20039;-79
2023/12/25 05:37:21;;;;;;;7.93;1.40;;;10.10;99.90;;;;;;4249817;27;20472;-79
2023/12/25 05:39:21;;;;;;;8.48;1.20;;;10.20;99.90;;;;;;4242391;28;20036;-79
2023/12/25 05:41:22;;;;;;;11.38;1.98;;;10.10;99.90;;;;;;4232750;28;20047;-79
2023/12/25 05:43:24;;;;;;;10.23;1.90;;;10.00;99.90;;;;;;4232562;28;20050;-79
2023/12/25 05:45:24;;;;;;;8.13;1.63;;;9.90;99.90;;;;;;4232728;28;20499;-79
2023/12/25 05:47:25;;;;;;;7.55;1.38;;;10.00;99.90;;;;;;4232594;28;20078;-79
2023/12/25 05:49:26;;;;;;;12.88;1.70;;;10.10;99.90;;;;;;4232221;28;20527;-79
2023/12/25 05:51:26;;;;;;;7.85;2.15;;;10.00;99.90;;;;;;4247225;28;20039;-79
2023/12/25 05:53:27;;;;;;;12.05;1.30;;;10.00;99.90;;;;;;4249768;28;20057;-79
2023/12/25 05:55:28;;;;;;;6.80;1.65;;;9.90;99.90;;;;;;4248941;28;20027;-79
2023/12/25 05:57:29;;;;;;;8.05;1.08;;;9.90;99.90;;;;;;4236160;28;20031;-79
2023/12/25 05:59:29;;;;;;;9.63;1.63;;;9.90;99.90;;;;;;4242880;28;20050;-79
2023/12/25 06:01:30;;;;;;;11.52;1.70;;;9.90;99.90;;;;;;4243215;27;20144;-79
2023/12/25 06:03:31;;;;;;;11.82;1.35;;;9.90;99.90;;;;;;4251627;27;20051;-79
2023/12/25 06:05:32;;;;;;;10.80;1.58;;;9.80;99.90;;;;;;4251534;27;20043;-79
2023/12/25 06:07:32;;;;;;;11.65;1.15;;;9.80;99.90;;;;;;4251321;27;20104;-79
2023/12/25 06:09:33;;;;;;;11.65;1.52;;;9.80;99.90;;;;;;4251495;27;20047;-79
2023/12/25 06:11:35;;;;;;;9.25;1.65;;;9.80;99.90;;;;;;4251390;27;20039;-79
2023/12/25 06:13:36;;;;;;;5.50;0.77;;;9.80;99.90;;;;;;4251168;27;20491;-79
2023/12/25 06:15:36;;;;;;;7.97;1.75;;;9.80;99.90;;;;;;4239681;27;20090;-79
2023/12/25 06:17:37;;;;;;;6.15;1.00;;;9.70;99.90;;;;;;4234194;28;20500;-79
2023/12/25 06:19:38;;;;;;;5.10;0.98;;;9.70;99.90;;;;;;4251120;27;20071;-79
2023/12/25 06:21:39;;;;;;;9.88;1.50;;;9.70;99.90;;;;;;4247153;27;20031;-79
2023/12/25 06:23:40;;;;;;;16.85;2.28;;;9.80;99.90;;;;;;4223786;28;20052;-79
2023/12/25 06:25:40;;;;;;;8.38;1.70;;;9.80;99.90;;;;;;4234567;28;20047;-79
2023/12/25 06:27:41;;;;;;;11.85;1.40;;;9.80;99.90;;;;;;4215908;28;20131;-79
2023/12/25 06:29:42;;;;;;;9.30;1.30;;;9.80;99.90;;;;;;4234083;28;20039;-79
2023/12/25 06:31:46;;;;;;;9.50;1.30;;;9.80;99.90;;;;;;4234130;28;20155;-79
2023/12/25 06:33:47;;;;;;;10.30;1.38;;;9.80;99.90;;;;;;4233619;28;20465;-80
2023/12/25 06:35:48;;;;;;;11.60;2.00;;;9.70;99.90;;;;;;4232627;28;20052;-80
2023/12/25 06:37:48;;;;;;;13.98;1.65;;;9.70;99.90;;;;;;4233919;28;20076;-79
2023/12/25 06:39:49;;;;;;;9.10;1.40;;;9.60;99.90;;;;;;4233886;28;20043;-80
2023/12/25 06:41:50;;;;;;;6.70;1.00;;;9.70;99.90;;;;;;4234525;27;20187;-79
2023/12/25 06:43:50;;;;;;;10.85;1.23;;;9.70;99.90;;;;;;4248940;27;20050;-80
2023/12/25 06:45:51;;;;;;;11.50;2.22;;;9.60;99.90;;;;;;4250591;27;20118;-79
2023/12/25 06:47:52;;;;;;;15.73;2.30;;;9.60;99.90;;;;;;4250606;27;20047;-79
2023/12/25 06:49:53;;;;;;;15.77;2.22;;;9.60;99.90;;;;;;4250670;27;20051;-79
2023/12/25 06:51:54;;;;;;;11.45;1.90;;;9.50;99.90;;;;;;4250487;27;20043;-80
2023/12/25 06:53:55;;;;;;;16.25;1.55;;;9.60;99.90;;;;;;4250820;27;20368;-79
2023/12/25 06:55:55;;;;;;;11.32;2.17;;;9.60;99.90;;;;;;4250478;27;20165;-80
2023/12/25 06:57:56;;;;;;;14.65;1.35;;;9.60;99.90;;;;;;4250680;27;20047;-80
2023/12/25 06:59:57;;;;;;;13.27;2.13;;;9.60;99.90;;;;;;4245687;27;20071;-80
2023/12/25 07:01:57;;;;;;;18.73;1.90;;;9.70;99.90;;;;;;4241748;27;20469;-79
2023/12/25 07:03:58;;;;;;;14.93;2.15;;;9.60;99.90;;;;;;4245599;27;20051;-79
2023/12/25 07:05:59;;;;;;;5.53;1.98;;;9.60;99.90;;;;;;4251219;27;20047;-79
2023/12/25 07:08:00;;;;;;;12.10;1.33;;;9.70;99.90;;;;;;4250088;27;20054;-79
2023/12/25 07:10:00;;;;;;;11.98;2.50;;;9.70;99.90;;;;;;4250590;27;20503;-79
2023/12/25 07:12:02;;;;;;;12.98;2.35;;;9.70;99.90;;;;;;4251316;27;20046;-79
2023/12/25 07:14:03;;;;;;;5.60;1.15;;;9.70;99.90;;;;;;4260787;27;20043;-79
2023/12/25 07:16:06;;;;;;;8.77;1.50;;;9.70;99.90;;;;;;4239056;28;20131;-79
2023/12/25 07:18:07;;;;;;;9.45;1.20;;;9.70;99.90;;;;;;4255961;27;20072;-79
2023/12/25 07:20:08;;;;;;;11.43;1.52;;;9.70;99.90;;;;;;4255557;27;20529;-79
2023/12/25 07:22:11;;;;;;;11.27;2.53;;;9.70;99.90;;;;;;4253358;27;20058;-79
2023/12/25 07:24:11;;;;;;;16.48;1.80;;;9.70;99.90;;;;;;4239354;28;20067;-79
2023/12/25 07:26:12;;;;;;;12.10;1.98;;;9.70;99.90;;;;;;4238722;28;20046;-80
2023/12/25 07:28:21;;;;;;;8.25;1.30;;;9.60;99.90;;;;;;4237614;28;20169;-79
2023/12/25 07:30:22;;;;;;;15.25;1.50;;;9.60;99.90;;;;;;4249450;27;20063;-79
2023/12/25 07:32:22;;;;;;;15.27;1.92;;;9.60;99.90;;;;;;4250279;27;20626;-79
2023/12/25 07:34:23;;;;;;;12.38;2.35;;;9.60;99.90;;;;;;4232074;28;20558;-80
2023/12/25 07:36:24;;;;;;;12.63;1.35;;;9.60;99.90;;;;;;4214959;28;20089;-80
2023/12/25 07:38:24;;;;;;;9.18;1.30;;;9.60;99.90;;;;;;4249875;27;20039;-79
2023/12/25 07:40:25;;;;;;;11.18;1.70;;;9.70;99.90;;;;;;4230122;27;20047;-79
2023/12/25 07:42:26;;;;;;;12.05;1.45;;;9.50;99.90;;;;;;4245772;27;20050;-79
2023/12/25 07:44:27;;;;;;;11.10;1.77;;;9.50;99.90;;;;;;4249802;27;20043;-79
2023/12/25 07:46:28;;;;;;;10.48;1.95;;;9.50;99.90;;;;;;4249864;27;20091;-79
2023/12/25 07:48:28;;;;;;;12.93;1.70;;;9.90;99.90;;;;;;4249418;27;20035;-79
2023/12/25 07:50:29;;;;;;;12.85;1.80;;;9.60;99.90;;;;;;4249398;27;20122;-79
2023/12/25 07:52:31;;;;;;;10.48;2.05;;;9.50;99.90;;;;;;4249299;27;20526;-79
2023/12/25 07:54:32;;;;;;;11.02;1.48;;;9.60;99.90;;;;;;4249058;27;20100;-79
2023/12/25 07:56:38;;;;;;;12.30;1.50;;;9.50;99.90;;;;;;4248201;27;20047;-80
2023/12/25 07:58:39;;;;;;;11.75;2.03;;;9.50;99.90;;;;;;4243687;27;20114;-79
2023/12/25 08:00:42;;;;;;;12.90;0.95;;;9.40;99.90;;;;;;4234970;27;20580;-80
2023/12/25 08:02:43;;;;;;;11.25;2.22;;;9.40;99.90;;;;;;4249042;27;20055;-80
2023/12/25 08:04:44;;;;;;;8.77;1.05;;;9.40;99.90;;;;;;4239203;27;20059;-80
2023/12/25 08:06:45;;;;;;;11.68;1.50;;;9.40;99.90;;;;;;4244369;27;20081;-80
2023/12/25 08:08:48;;;;;;;9.55;1.08;;;9.70;99.90;;;;;;4231014;28;20515;-80
2023/12/25 08:10:49;;;;;;;6.55;1.08;;;8.40;99.90;;;;;;4230938;28;20047;-80
2023/12/25 08:12:50;;;;;;;10.38;1.35;;;9.20;99.90;;;;;;4249073;27;20578;-80
2023/12/25 08:14:50;;;;;;;5.05;1.70;;;8.80;99.90;;;;;;4249202;27;20575;-79
2023/12/25 08:16:51;;;;;;;5.30;1.20;;;10.00;99.90;;;;;;4249021;27;20043;-80
2023/12/25 08:18:52;;;;;;;3.72;0.60;;;9.10;99.90;;;;;;4249122;27;20047;-80
2023/12/25 08:20:53;;;;;;;3.85;0.73;;;9.10;99.90;;;;;;4246976;27;20039;-80
2023/12/25 08:22:53;;;;;;;6.18;1.45;;;9.00;99.90;;;;;;4246866;27;20035;-80
2023/12/25 08:25:00;;;;;;;4.40;1.25;;;9.00;99.90;;;;;;4250706;27;20507;-79
2023/12/25 08:27:03;;;;;;;5.35;0.93;;;9.10;99.90;;;;;;4248975;27;20043;-78
2023/12/25 08:29:03;;;;;;;17.65;1.95;;;9.00;99.90;;;;;;4214065;28;20055;-78
2023/12/25 08:31:04;;;;;;;8.32;1.70;;;8.90;99.90;;;;;;4249128;27;20041;-78
2023/12/25 08:33:05;;;;;;;11.05;1.17;;;8.90;99.90;;;;;;4249229;27;20130;-78
2023/12/25 08:35:06;;;;;;;13.15;1.23;;;8.90;99.90;;;;;;4240317;27;20082;-79
2023/12/25 08:37:07;;;;;;;9.43;1.40;;;8.90;99.90;;;;;;4245071;27;20039;-79
2023/12/25 08:39:08;;;;;;;14.52;2.67;;;8.90;99.90;;;;;;4248638;27;20035;-81
2023/12/25 08:41:09;;;;;;;8.45;1.10;;;9.50;99.90;;;;;;4213418;28;20584;-80
2023/12/25 08:43:10;;;;;;;10.35;1.17;;;8.90;99.90;;;;;;4249392;27;20407;-80
2023/12/25 08:45:10;;;;;;;8.70;1.17;;;8.90;99.90;;;;;;4249991;27;20498;-81
2023/12/25 08:47:11;;;;;;;6.85;1.17;;;9.20;99.90;;;;;;4241444;27;20396;-78
2023/12/25 08:49:12;;;;;;;13.35;2.40;;;8.90;99.90;;;;;;4232828;28;20096;-78
2023/12/25 08:51:13;;;;;;;9.35;1.35;;;9.00;99.90;;;;;;4233280;28;20071;-79
2023/12/25 08:53:14;;;;;;;9.25;1.40;;;9.00;99.90;;;;;;4232848;28;20036;-79
2023/12/25 08:55:14;;;;;;;6.95;1.48;;;9.00;99.90;;;;;;4233324;28;20115;-79
2023/12/25 08:57:15;;;;;;;6.53;1.13;;;9.30;99.90;;;;;;4232284;28;20514;-79
2023/12/25 08:59:17;;;;;;;6.32;1.60;;;9.00;99.90;;;;;;4217549;28;20400;-79
2023/12/25 09:01:18;;;;;;;5.15;0.95;;;9.00;99.90;;;;;;4247773;27;20456;-79
2023/12/25 09:03:25;;;;;;;8.25;1.65;;;9.10;99.90;;;;;;4246978;27;20089;-79
2023/12/25 09:05:31;;;;;;;6.18;1.33;;;8.80;99.90;;;;;;4247718;27;20187;-78
2023/12/25 09:07:38;;;;;;;7.82;1.85;;;9.20;99.90;;;;;;4230153;28;20104;-78
2023/12/25 09:09:48;;;;;;;7.25;1.20;;;10.50;99.90;;;;;;4248461;27;20107;-78
2023/12/25 09:12:00;;;;;;;7.10;1.52;;;9.80;99.90;;;;;;4246044;27;20062;-79
2023/12/25 09:14:03;;;;;;;11.65;1.52;;;10.00;99.90;;;;;;4227503;28;20036;-79
2023/12/25 09:16:07;;;;;;;10.10;1.95;;;10.00;99.90;;;;;;4231346;28;20096;-80
2023/12/25 09:18:10;;;;;;;3.92;1.67;;;9.90;99.90;;;;;;4231052;28;20126;-79
2023/12/25 09:20:21;;;;;;;7.15;1.10;;;9.90;99.90;;;;;;4239814;27;20141;-79
2023/12/25 09:22:36;;;;;;;5.70;1.10;;;9.80;99.90;;;;;;4221895;28;20046;-79
2023/12/25 09:24:38;;;;;;;10.27;0.80;;;10.20;99.90;;;;;;4211504;28;20448;-81
2023/12/25 09:26:39;;;;;;;9.20;1.95;;;9.90;99.90;;;;;;4245723;27;20039;-82
2023/12/25 09:28:40;;;;;;;7.68;0.85;;;10.10;99.90;;;;;;4227183;28;20047;-82
2023/12/25 09:30:41;;;;;;;5.07;0.90;;;10.20;99.90;;;;;;4245396;27;20126;-80
2023/12/25 09:32:41;;;;;;;6.40;1.95;;;10.30;99.90;;;;;;4227404;28;20050;-80
2023/12/25 09:34:43;;;;;;;3.47;0.77;;;10.30;99.90;;;;;;4245207;27;20423;-82
2023/12/25 09:36:44;;;;;;;6.43;1.00;;;10.60;99.90;;;;;;4240203;27;20039;-82
2023/12/25 09:38:47;;;;;;;7.63;0.90;;;10.80;99.90;;;;;;4233530;28;20046;-82
2023/12/25 09:40:47;;;;;;;8.90;1.65;;;11.10;99.90;;;;;;4231354;28;20126;-82
2023/12/25 09:42:50;;;;;;;8.57;1.23;;;11.30;99.90;;;;;;4246524;28;20047;-80
2023/12/25 09:44:54;;;;;;;4.60;0.77;;;11.20;99.90;;;;;;4249978;28;20043;-80
2023/12/25 09:46:55;;;;;;;8.43;1.20;;;11.20;99.90;;;;;;4231593;28;20484;-80
2023/12/25 09:48:57;;;;;;;6.10;1.50;;;10.90;99.90;;;;;;4259738;28;20044;-79
2023/12/25 09:50:59;;;;;;;9.77;1.77;;;10.60;99.90;;;;;;4263731;28;20054;-80
2023/12/25 09:53:00;;;;;;;10.57;1.38;;;10.50;99.90;;;;;;4255443;28;20103;-80
2023/12/25 09:55:01;;;;;;;5.85;1.35;;;10.30;99.90;;;;;;4240447;28;20492;-80
2023/12/25 09:57:04;;;;;;;6.10;0.93;;;10.20;99.90;;;;;;4237251;28;20043;-82
2023/12/25 09:59:07;;;;;;;9.68;1.98;;;10.10;99.90;;;;;;4238672;28;20047;-82
2023/12/25 10:01:08;;;;;;;7.95;1.42;;;10.10;99.90;;;;;;4242669;28;20043;-82
2023/12/25 10:03:10;;;;;;;7.28;2.25;;;10.00;99.90;;;;;;4253888;28;20092;-80
2023/12/25 10:05:18;;;;;;;6.65;1.40;;;10.00;99.90;;;;;;4234096;28;20105;-80
2023/12/25 10:07:22;;;;;;;4.53;1.08;;;9.90;99.90;;;;;;4250275;28;20097;-80
2023/12/25 10:09:24;;;;;;;1.85;0.55;;;9.90;99.90;;;;;;4249891;28;20111;-80
2023/12/25 10:11:24;;;;;;;9.82;1.73;;;9.90;99.90;;;;;;4249577;28;20096;-80
2023/12/25 10:13:25;;;;;;;8.13;1.58;;;9.90;99.90;;;;;;4249790;28;20043;-80
2023/12/25 10:15:26;;;;;;;8.27;0.90;;;9.90;99.90;;;;;;4249629;28;20173;-80
2023/12/25 10:17:27;;;;;;;5.45;1.42;;;9.80;99.90;;;;;;4249887;28;20122;-80
2023/12/25 10:19:27;;;;;;;9.73;1.95;;;9.80;99.90;;;;;;4249233;28;20047;-80
2023/12/25 10:21:41;;;;;;;7.65;0.80;;;9.80;99.90;;;;;;4249415;28;20495;-80
2023/12/25 10:23:42;;;;;;;4.60;0.75;;;9.80;99.90;;;;;;4249139;28;20038;-80
2023/12/25 10:25:44;;;;;;;8.73;1.35;;;9.90;99.90;;;;;;4249858;28;20035;-80
2023/12/25 10:27:46;;;;;;;5.15;0.82;;;9.80;99.90;;;;;;4249680;28;20035;-80
2023/12/25 10:29:47;;;;;;;7.63;1.67;;;9.70;99.90;;;;;;4249417;28;20051;-80
2023/12/25 10:31:48;;;;;;;4.30;0.90;;;10.00;99.90;;;;;;4243495;28;20027;-80